sensor_id;sensor_type;location;lat;lon;timestamp;P1;durP1;ratioP1;P2;durP2;ratioP2
3141;SDS011;1581;51.568;6.998;2023-06-14T00:00:53;5.15;;;3.40;;
3141;SDS011;1581;51.568;6.998;2023-06-14T00:03:23;6.93;;;3.78;;
3141;SDS011;1581;51.568;6.998;2023-06-14T00:05:51;5.45;;;3.78;;
3141;SDS011;1581;51.568;6.998;2023-06-14T00:08:19;10.30;;;3.22;;
3141;SDS011;1581;51.568;6.998;2023-06-14T00:10:48;4.82;;;3.30;;
3141;SDS011;1581;51.568;6.998;2023-06-14T00:13:16;8.68;;;3.28;;
3141;SDS011;1581;51.568;6.998;2023-06-14T00:15:44;5.80;;;3.58;;
3141;SDS011;1581;51.568;6.998;2023-06-14T00:18:12;3.78;;;3.10;;
3141;SDS011;1581;51.568;6.998;2023-06-14T00:20:43;4.50;;;3.63;;
3141;SDS011;1581;51.568;6.998;2023-06-14T00:23:11;3.83;;;3.22;;
3141;SDS011;1581;51.568;6.998;2023-06-14T00:25:40;3.60;;;3.30;;
3141;SDS011;1581;51.568;6.998;2023-06-14T00:28:08;5.32;;;3.33;;
3141;SDS011;1581;51.568;6.998;2023-06-14T00:30:35;3.60;;;3.30;;
3141;SDS011;1581;51.568;6.998;2023-06-14T00:33:03;4.03;;;3.60;;
3141;SDS011;1581;51.568;6.998;2023-06-14T00:35:33;5.18;;;3.53;;
3141;SDS011;1581;51.568;6.998;2023-06-14T00:38:02;3.40;;;3.10;;
3141;SDS011;1581;51.568;6.998;2023-06-14T00:40:30;7.38;;;3.00;;
3141;SDS011;1581;51.568;6.998;2023-06-14T00:43:00;3.40;;;2.78;;
3141;SDS011;1581;51.568;6.998;2023-06-14T00:45:28;6.50;;;3.60;;
3141;SDS011;1581;51.568;6.998;2023-06-14T00:47:56;4.15;;;2.92;;
3141;SDS011;1581;51.568;6.998;2023-06-14T00:50:25;4.20;;;3.40;;
3141;SDS011;1581;51.568;6.998;2023-06-14T00:52:58;4.68;;;3.38;;
3141;SDS011;1581;51.568;6.998;2023-06-14T00:55:31;6.18;;;2.80;;
3141;SDS011;1581;51.568;6.998;2023-06-14T01:00:30;5.90;;;3.03;;
3141;SDS011;1581;51.568;6.998;2023-06-14T01:02:58;5.50;;;2.75;;
3141;SDS011;1581;51.568;6.998;2023-06-14T01:05:26;4.43;;;2.90;;
3141;SDS011;1581;51.568;6.998;2023-06-14T01:08:00;5.90;;;3.33;;
3141;SDS011;1581;51.568;6.998;2023-06-14T01:10:55;4.70;;;3.13;;
3141;SDS011;1581;51.568;6.998;2023-06-14T01:13:32;11.18;;;3.60;;
3141;SDS011;1581;51.568;6.998;2023-06-14T01:16:02;2.88;;;2.40;;
3141;SDS011;1581;51.568;6.998;2023-06-14T01:18:31;5.22;;;3.33;;
3141;SDS011;1581;51.568;6.998;2023-06-14T01:21:00;9.05;;;3.10;;
3141;SDS011;1581;51.568;6.998;2023-06-14T01:23:32;5.95;;;3.35;;
3141;SDS011;1581;51.568;6.998;2023-06-14T01:26:01;3.78;;;3.05;;
3141;SDS011;1581;51.568;6.998;2023-06-14T01:28:30;4.28;;;3.17;;
3141;SDS011;1581;51.568;6.998;2023-06-14T01:31:01;4.95;;;3.00;;
3141;SDS011;1581;51.568;6.998;2023-06-14T01:33:30;3.40;;;3.00;;
3141;SDS011;1581;51.568;6.998;2023-06-14T01:35:59;5.35;;;2.85;;
3141;SDS011;1581;51.568;6.998;2023-06-14T01:38:29;6.45;;;3.17;;
3141;SDS011;1581;51.568;6.998;2023-06-14T01:40:59;7.75;;;3.78;;
3141;SDS011;1581;51.568;6.998;2023-06-14T01:43:29;3.50;;;3.20;;
3141;SDS011;1581;51.568;6.998;2023-06-14T01:46:01;5.10;;;2.53;;
3141;SDS011;1581;51.568;6.998;2023-06-14T01:48:32;13.45;;;3.20;;
3141;SDS011;1581;51.568;6.998;2023-06-14T01:51:00;7.28;;;2.90;;
3141;SDS011;1581;51.568;6.998;2023-06-14T01:53:29;2.90;;;2.60;;
3141;SDS011;1581;51.568;6.998;2023-06-14T01:55:58;4.25;;;3.00;;
3141;SDS011;1581;51.568;6.998;2023-06-14T01:58:26;4.95;;;3.15;;
3141;SDS011;1581;51.568;6.998;2023-06-14T02:00:54;11.38;;;2.83;;
3141;SDS011;1581;51.568;6.998;2023-06-14T02:03:23;5.35;;;3.17;;
3141;SDS011;1581;51.568;6.998;2023-06-14T02:05:51;5.55;;;3.15;;
3141;SDS011;1581;51.568;6.998;2023-06-14T02:08:19;6.63;;;2.97;;
3141;SDS011;1581;51.568;6.998;2023-06-14T02:10:47;6.07;;;3.17;;
3141;SDS011;1581;51.568;6.998;2023-06-14T02:13:17;2.63;;;2.40;;
3141;SDS011;1581;51.568;6.998;2023-06-14T02:15:44;4.68;;;2.90;;
3141;SDS011;1581;51.568;6.998;2023-06-14T02:18:16;6.32;;;2.60;;
3141;SDS011;1581;51.568;6.998;2023-06-14T02:20:45;6.47;;;3.30;;
3141;SDS011;1581;51.568;6.998;2023-06-14T02:23:13;4.70;;;2.73;;
3141;SDS011;1581;51.568;6.998;2023-06-14T02:25:41;10.13;;;2.67;;
3141;SDS011;1581;51.568;6.998;2023-06-14T02:28:10;6.10;;;2.80;;
3141;SDS011;1581;51.568;6.998;2023-06-14T02:30:41;3.30;;;2.53;;
3141;SDS011;1581;51.568;6.998;2023-06-14T02:33:09;4.37;;;2.97;;
3141;SDS011;1581;51.568;6.998;2023-06-14T02:35:38;4.50;;;2.75;;
3141;SDS011;1581;51.568;6.998;2023-06-14T02:38:05;3.53;;;2.63;;
3141;SDS011;1581;51.568;6.998;2023-06-14T02:40:34;3.30;;;3.00;;
3141;SDS011;1581;51.568;6.998;2023-06-14T02:43:01;6.60;;;2.53;;
3141;SDS011;1581;51.568;6.998;2023-06-14T02:45:30;5.73;;;2.77;;
3141;SDS011;1581;51.568;6.998;2023-06-14T02:47:59;6.77;;;2.30;;
3141;SDS011;1581;51.568;6.998;2023-06-14T02:50:27;4.73;;;3.10;;
3141;SDS011;1581;51.568;6.998;2023-06-14T02:52:55;3.47;;;2.40;;
3141;SDS011;1581;51.568;6.998;2023-06-14T02:55:23;4.60;;;2.90;;
3141;SDS011;1581;51.568;6.998;2023-06-14T02:57:53;6.67;;;2.40;;
3141;SDS011;1581;51.568;6.998;2023-06-14T03:00:22;8.63;;;2.60;;
3141;SDS011;1581;51.568;6.998;2023-06-14T03:02:51;11.73;;;2.80;;
3141;SDS011;1581;51.568;6.998;2023-06-14T03:05:22;4.23;;;2.90;;
3141;SDS011;1581;51.568;6.998;2023-06-14T03:07:50;5.67;;;3.20;;
3141;SDS011;1581;51.568;6.998;2023-06-14T03:10:19;3.30;;;2.40;;
3141;SDS011;1581;51.568;6.998;2023-06-14T03:12:47;2.53;;;2.27;;
3141;SDS011;1581;51.568;6.998;2023-06-14T03:15:15;15.33;;;3.10;;
3141;SDS011;1581;51.568;6.998;2023-06-14T03:17:43;8.17;;;2.80;;
3141;SDS011;1581;51.568;6.998;2023-06-14T03:20:12;4.40;;;2.40;;
3141;SDS011;1581;51.568;6.998;2023-06-14T03:22:42;8.33;;;3.37;;
3141;SDS011;1581;51.568;6.998;2023-06-14T03:25:11;7.27;;;3.17;;
3141;SDS011;1581;51.568;6.998;2023-06-14T03:27:39;17.33;;;2.70;;
3141;SDS011;1581;51.568;6.998;2023-06-14T03:30:08;4.07;;;2.90;;
3141;SDS011;1581;51.568;6.998;2023-06-14T03:32:36;6.97;;;2.30;;
3141;SDS011;1581;51.568;6.998;2023-06-14T03:35:04;2.87;;;2.57;;
3141;SDS011;1581;51.568;6.998;2023-06-14T03:37:33;5.20;;;2.87;;
3141;SDS011;1581;51.568;6.998;2023-06-14T03:40:02;5.97;;;3.10;;
3141;SDS011;1581;51.568;6.998;2023-06-14T03:42:32;3.77;;;2.63;;
3141;SDS011;1581;51.568;6.998;2023-06-14T03:45:00;8.43;;;2.70;;
3141;SDS011;1581;51.568;6.998;2023-06-14T03:47:27;6.80;;;3.20;;
3141;SDS011;1581;51.568;6.998;2023-06-14T03:49:55;2.73;;;2.20;;
3141;SDS011;1581;51.568;6.998;2023-06-14T03:52:23;3.90;;;2.77;;
3141;SDS011;1581;51.568;6.998;2023-06-14T03:54:51;4.73;;;3.27;;
3141;SDS011;1581;51.568;6.998;2023-06-14T03:57:21;2.50;;;2.13;;
3141;SDS011;1581;51.568;6.998;2023-06-14T03:59:50;6.17;;;2.57;;
3141;SDS011;1581;51.568;6.998;2023-06-14T04:02:18;3.27;;;2.90;;
3141;SDS011;1581;51.568;6.998;2023-06-14T04:04:45;11.03;;;2.87;;
3141;SDS011;1581;51.568;6.998;2023-06-14T04:07:13;3.70;;;2.70;;
3141;SDS011;1581;51.568;6.998;2023-06-14T04:09:44;7.93;;;3.00;;
3141;SDS011;1581;51.568;6.998;2023-06-14T04:12:12;3.73;;;2.60;;
3141;SDS011;1581;51.568;6.998;2023-06-14T04:14:42;5.73;;;2.70;;
3141;SDS011;1581;51.568;6.998;2023-06-14T04:17:10;4.30;;;2.63;;
3141;SDS011;1581;51.568;6.998;2023-06-14T04:19:38;3.57;;;2.57;;
3141;SDS011;1581;51.568;6.998;2023-06-14T04:22:06;5.93;;;2.90;;
3141;SDS011;1581;51.568;6.998;2023-06-14T04:24:36;4.30;;;2.27;;
3141;SDS011;1581;51.568;6.998;2023-06-14T04:27:03;2.30;;;2.10;;
3141;SDS011;1581;51.568;6.998;2023-06-14T04:29:32;4.63;;;2.40;;
3141;SDS011;1581;51.568;6.998;2023-06-14T04:32:01;3.63;;;2.50;;
3141;SDS011;1581;51.568;6.998;2023-06-14T04:34:33;4.10;;;2.33;;
3141;SDS011;1581;51.568;6.998;2023-06-14T04:37:02;5.03;;;2.77;;
3141;SDS011;1581;51.568;6.998;2023-06-14T04:39:34;3.20;;;2.40;;
3141;SDS011;1581;51.568;6.998;2023-06-14T04:42:02;3.53;;;2.37;;
3141;SDS011;1581;51.568;6.998;2023-06-14T04:44:32;3.97;;;2.10;;
3141;SDS011;1581;51.568;6.998;2023-06-14T04:47:02;9.27;;;2.37;;
3141;SDS011;1581;51.568;6.998;2023-06-14T04:49:32;2.70;;;2.40;;
3141;SDS011;1581;51.568;6.998;2023-06-14T04:52:00;3.67;;;2.20;;
3141;SDS011;1581;51.568;6.998;2023-06-14T04:54:28;3.20;;;2.47;;
3141;SDS011;1581;51.568;6.998;2023-06-14T04:56:57;3.17;;;2.50;;
3141;SDS011;1581;51.568;6.998;2023-06-14T04:59:25;4.53;;;2.37;;
3141;SDS011;1581;51.568;6.998;2023-06-14T05:01:56;3.07;;;2.40;;
3141;SDS011;1581;51.568;6.998;2023-06-14T05:04:25;3.10;;;2.20;;
3141;SDS011;1581;51.568;6.998;2023-06-14T05:06:54;6.90;;;2.90;;
3141;SDS011;1581;51.568;6.998;2023-06-14T05:09:22;5.20;;;3.10;;
3141;SDS011;1581;51.568;6.998;2023-06-14T05:11:50;4.67;;;2.50;;
3141;SDS011;1581;51.568;6.998;2023-06-14T05:14:18;4.73;;;2.67;;
3141;SDS011;1581;51.568;6.998;2023-06-14T05:16:47;4.07;;;3.30;;
3141;SDS011;1581;51.568;6.998;2023-06-14T05:19:15;2.07;;;1.87;;
3141;SDS011;1581;51.568;6.998;2023-06-14T05:21:46;4.43;;;2.40;;
3141;SDS011;1581;51.568;6.998;2023-06-14T05:24:14;4.90;;;2.83;;
3141;SDS011;1581;51.568;6.998;2023-06-14T05:26:43;5.03;;;2.70;;
3141;SDS011;1581;51.568;6.998;2023-06-14T05:29:12;6.43;;;2.70;;
3141;SDS011;1581;51.568;6.998;2023-06-14T05:31:41;5.07;;;2.53;;
3141;SDS011;1581;51.568;6.998;2023-06-14T05:34:09;3.70;;;2.30;;
3141;SDS011;1581;51.568;6.998;2023-06-14T05:36:38;3.10;;;2.80;;
3141;SDS011;1581;51.568;6.998;2023-06-14T05:39:07;5.43;;;2.83;;
3141;SDS011;1581;51.568;6.998;2023-06-14T05:41:36;4.33;;;3.20;;
3141;SDS011;1581;51.568;6.998;2023-06-14T05:44:04;4.90;;;2.27;;
3141;SDS011;1581;51.568;6.998;2023-06-14T05:46:33;4.38;;;2.72;;
3141;SDS011;1581;51.568;6.998;2023-06-14T05:49:01;3.67;;;2.38;;
3141;SDS011;1581;51.568;6.998;2023-06-14T05:53:18;4.23;;;2.43;;
3141;SDS011;1581;51.568;6.998;2023-06-14T05:55:46;2.43;;;2.10;;
3141;SDS011;1581;51.568;6.998;2023-06-14T05:58:14;3.30;;;2.80;;
3141;SDS011;1581;51.568;6.998;2023-06-14T06:00:42;6.32;;;2.97;;
3141;SDS011;1581;51.568;6.998;2023-06-14T06:03:11;4.00;;;2.95;;
3141;SDS011;1581;51.568;6.998;2023-06-14T06:05:39;4.30;;;2.38;;
3141;SDS011;1581;51.568;6.998;2023-06-14T06:08:08;4.25;;;2.67;;
3141;SDS011;1581;51.568;6.998;2023-06-14T06:10:37;4.88;;;2.38;;
3141;SDS011;1581;51.568;6.998;2023-06-14T06:13:11;9.15;;;2.53;;
3141;SDS011;1581;51.568;6.998;2023-06-14T06:15:39;3.53;;;1.80;;
3141;SDS011;1581;51.568;6.998;2023-06-14T06:18:08;15.85;;;2.33;;
3141;SDS011;1581;51.568;6.998;2023-06-14T06:20:36;3.40;;;2.47;;
3141;SDS011;1581;51.568;6.998;2023-06-14T06:23:04;3.30;;;2.00;;
3141;SDS011;1581;51.568;6.998;2023-06-14T06:25:33;2.92;;;2.00;;
3141;SDS011;1581;51.568;6.998;2023-06-14T06:28:02;2.30;;;2.10;;
3141;SDS011;1581;51.568;6.998;2023-06-14T06:30:31;7.03;;;2.20;;
3141;SDS011;1581;51.568;6.998;2023-06-14T06:32:59;4.45;;;2.50;;
3141;SDS011;1581;51.568;6.998;2023-06-14T06:35:29;3.42;;;2.50;;
3141;SDS011;1581;51.568;6.998;2023-06-14T06:37:58;3.30;;;2.45;;
3141;SDS011;1581;51.568;6.998;2023-06-14T06:40:28;11.88;;;1.90;;
3141;SDS011;1581;51.568;6.998;2023-06-14T06:42:57;2.30;;;2.00;;
3141;SDS011;1581;51.568;6.998;2023-06-14T06:45:26;4.22;;;2.33;;
3141;SDS011;1581;51.568;6.998;2023-06-14T06:47:54;2.30;;;1.80;;
3141;SDS011;1581;51.568;6.998;2023-06-14T06:50:22;5.68;;;2.42;;
3141;SDS011;1581;51.568;6.998;2023-06-14T06:52:50;3.80;;;2.20;;
3141;SDS011;1581;51.568;6.998;2023-06-14T06:55:18;2.33;;;2.13;;
3141;SDS011;1581;51.568;6.998;2023-06-14T06:57:47;9.13;;;2.00;;
3141;SDS011;1581;51.568;6.998;2023-06-14T07:00:18;7.63;;;2.35;;
3141;SDS011;1581;51.568;6.998;2023-06-14T07:02:48;2.95;;;2.30;;
3141;SDS011;1581;51.568;6.998;2023-06-14T07:05:16;5.20;;;1.77;;
3141;SDS011;1581;51.568;6.998;2023-06-14T07:07:44;2.25;;;1.75;;
3141;SDS011;1581;51.568;6.998;2023-06-14T07:10:13;5.40;;;2.45;;
3141;SDS011;1581;51.568;6.998;2023-06-14T07:12:41;6.35;;;1.98;;
3141;SDS011;1581;51.568;6.998;2023-06-14T07:15:09;1.77;;;1.52;;
3141;SDS011;1581;51.568;6.998;2023-06-14T07:17:38;9.43;;;2.03;;
3141;SDS011;1581;51.568;6.998;2023-06-14T07:20:09;5.00;;;1.83;;
3141;SDS011;1581;51.568;6.998;2023-06-14T07:22:39;4.45;;;1.90;;
3141;SDS011;1581;51.568;6.998;2023-06-14T07:25:08;3.13;;;1.88;;
3141;SDS011;1581;51.568;6.998;2023-06-14T07:27:38;2.78;;;1.95;;
3141;SDS011;1581;51.568;6.998;2023-06-14T07:30:06;3.38;;;1.73;;
3141;SDS011;1581;51.568;6.998;2023-06-14T07:32:36;2.00;;;1.75;;
3141;SDS011;1581;51.568;6.998;2023-06-14T07:35:05;9.88;;;2.38;;
3141;SDS011;1581;51.568;6.998;2023-06-14T07:37:36;4.35;;;1.88;;
3141;SDS011;1581;51.568;6.998;2023-06-14T07:40:04;5.85;;;2.47;;
3141;SDS011;1581;51.568;6.998;2023-06-14T07:42:35;4.18;;;1.80;;
3141;SDS011;1581;51.568;6.998;2023-06-14T07:45:04;5.05;;;2.10;;
3141;SDS011;1581;51.568;6.998;2023-06-14T07:47:33;2.45;;;1.95;;
3141;SDS011;1581;51.568;6.998;2023-06-14T07:50:01;1.80;;;1.70;;
3141;SDS011;1581;51.568;6.998;2023-06-14T07:52:31;6.40;;;1.85;;
3141;SDS011;1581;51.568;6.998;2023-06-14T07:55:01;4.57;;;1.90;;
3141;SDS011;1581;51.568;6.998;2023-06-14T07:57:30;2.97;;;2.25;;
3141;SDS011;1581;51.568;6.998;2023-06-14T07:59:58;3.17;;;2.22;;
3141;SDS011;1581;51.568;6.998;2023-06-14T08:02:29;7.97;;;2.55;;
3141;SDS011;1581;51.568;6.998;2023-06-14T08:04:57;6.38;;;2.10;;
3141;SDS011;1581;51.568;6.998;2023-06-14T08:07:26;4.93;;;2.10;;
3141;SDS011;1581;51.568;6.998;2023-06-14T08:09:55;3.13;;;1.88;;
3141;SDS011;1581;51.568;6.998;2023-06-14T08:12:23;4.00;;;1.70;;
3141;SDS011;1581;51.568;6.998;2023-06-14T08:14:52;7.30;;;2.10;;
3141;SDS011;1581;51.568;6.998;2023-06-14T08:17:21;2.30;;;2.10;;
3141;SDS011;1581;51.568;6.998;2023-06-14T08:19:50;2.92;;;2.38;;
3141;SDS011;1581;51.568;6.998;2023-06-14T08:22:20;9.57;;;2.17;;
3141;SDS011;1581;51.568;6.998;2023-06-14T08:24:50;1.85;;;1.75;;
3141;SDS011;1581;51.568;6.998;2023-06-14T08:27:21;3.35;;;2.30;;
3141;SDS011;1581;51.568;6.998;2023-06-14T08:29:49;3.40;;;1.90;;
3141;SDS011;1581;51.568;6.998;2023-06-14T08:32:17;2.55;;;2.25;;
3141;SDS011;1581;51.568;6.998;2023-06-14T08:34:46;5.68;;;1.90;;
3141;SDS011;1581;51.568;6.998;2023-06-14T08:37:21;10.73;;;2.55;;
3141;SDS011;1581;51.568;6.998;2023-06-14T08:39:52;5.32;;;2.00;;
3141;SDS011;1581;51.568;6.998;2023-06-14T08:42:25;1.98;;;1.77;;
3141;SDS011;1581;51.568;6.998;2023-06-14T08:44:54;1.73;;;1.63;;
3141;SDS011;1581;51.568;6.998;2023-06-14T08:47:29;3.70;;;1.95;;
3141;SDS011;1581;51.568;6.998;2023-06-14T08:50:02;3.10;;;1.95;;
3141;SDS011;1581;51.568;6.998;2023-06-14T08:52:33;1.20;;;1.10;;
3141;SDS011;1581;51.568;6.998;2023-06-14T08:55:11;2.47;;;1.58;;
3141;SDS011;1581;51.568;6.998;2023-06-14T08:57:44;2.45;;;1.45;;
3141;SDS011;1581;51.568;6.998;2023-06-14T09:00:14;1.58;;;1.23;;
3141;SDS011;1581;51.568;6.998;2023-06-14T09:02:45;1.90;;;1.38;;
3141;SDS011;1581;51.568;6.998;2023-06-14T09:05:15;3.28;;;2.05;;
3141;SDS011;1581;51.568;6.998;2023-06-14T09:07:45;1.42;;;1.33;;
3141;SDS011;1581;51.568;6.998;2023-06-14T09:10:26;7.65;;;2.00;;
3141;SDS011;1581;51.568;6.998;2023-06-14T09:13:02;2.08;;;1.13;;
3141;SDS011;1581;51.568;6.998;2023-06-14T09:15:33;1.55;;;1.10;;
3141;SDS011;1581;51.568;6.998;2023-06-14T09:18:02;5.50;;;1.40;;
3141;SDS011;1581;51.568;6.998;2023-06-14T09:20:31;7.22;;;1.20;;
3141;SDS011;1581;51.568;6.998;2023-06-14T09:22:59;4.63;;;1.50;;
3141;SDS011;1581;51.568;6.998;2023-06-14T09:25:30;5.82;;;1.45;;
3141;SDS011;1581;51.568;6.998;2023-06-14T09:27:59;1.58;;;1.30;;
3141;SDS011;1581;51.568;6.998;2023-06-14T09:30:33;2.30;;;0.90;;
3141;SDS011;1581;51.568;6.998;2023-06-14T09:33:02;3.08;;;1.23;;
3141;SDS011;1581;51.568;6.998;2023-06-14T09:35:36;1.00;;;1.00;;
3141;SDS011;1581;51.568;6.998;2023-06-14T09:38:05;4.07;;;1.15;;
3141;SDS011;1581;51.568;6.998;2023-06-14T09:40:35;2.33;;;1.10;;
3141;SDS011;1581;51.568;6.998;2023-06-14T09:43:07;2.45;;;1.30;;
3141;SDS011;1581;51.568;6.998;2023-06-14T09:45:39;1.25;;;1.15;;
3141;SDS011;1581;51.568;6.998;2023-06-14T09:48:11;2.05;;;1.13;;
3141;SDS011;1581;51.568;6.998;2023-06-14T09:50:44;0.98;;;0.98;;
3141;SDS011;1581;51.568;6.998;2023-06-14T09:53:19;2.15;;;1.02;;
3141;SDS011;1581;51.568;6.998;2023-06-14T09:55:52;4.60;;;1.17;;
3141;SDS011;1581;51.568;6.998;2023-06-14T09:58:28;1.02;;;1.02;;
3141;SDS011;1581;51.568;6.998;2023-06-14T10:01:01;1.95;;;1.05;;
3141;SDS011;1581;51.568;6.998;2023-06-14T10:03:32;0.95;;;0.95;;
3141;SDS011;1581;51.568;6.998;2023-06-14T10:06:02;3.80;;;1.10;;
3141;SDS011;1581;51.568;6.998;2023-06-14T10:08:35;3.08;;;0.77;;
3141;SDS011;1581;51.568;6.998;2023-06-14T10:11:04;1.48;;;0.70;;
3141;SDS011;1581;51.568;6.998;2023-06-14T10:13:34;1.75;;;1.05;;
3141;SDS011;1581;51.568;6.998;2023-06-14T10:16:05;5.82;;;0.90;;
3141;SDS011;1581;51.568;6.998;2023-06-14T10:18:41;4.97;;;0.88;;
3141;SDS011;1581;51.568;6.998;2023-06-14T10:21:16;9.70;;;1.10;;
3141;SDS011;1581;51.568;6.998;2023-06-14T10:23:53;1.30;;;1.20;;
3141;SDS011;1581;51.568;6.998;2023-06-14T10:26:23;2.20;;;1.00;;
3141;SDS011;1581;51.568;6.998;2023-06-14T10:28:57;3.58;;;1.05;;
3141;SDS011;1581;51.568;6.998;2023-06-14T10:31:45;1.60;;;1.20;;
3141;SDS011;1581;51.568;6.998;2023-06-14T10:34:21;3.20;;;1.10;;
3141;SDS011;1581;51.568;6.998;2023-06-14T10:37:02;7.80;;;0.90;;
3141;SDS011;1581;51.568;6.998;2023-06-14T10:39:32;2.60;;;1.27;;
3141;SDS011;1581;51.568;6.998;2023-06-14T10:42:06;1.85;;;1.00;;
3141;SDS011;1581;51.568;6.998;2023-06-14T10:44:43;1.05;;;0.70;;
3141;SDS011;1581;51.568;6.998;2023-06-14T10:47:24;3.88;;;0.90;;
3141;SDS011;1581;51.568;6.998;2023-06-14T10:49:54;2.53;;;1.40;;
3141;SDS011;1581;51.568;6.998;2023-06-14T10:52:25;0.88;;;0.88;;
3141;SDS011;1581;51.568;6.998;2023-06-14T10:54:55;5.45;;;0.73;;
3141;SDS011;1581;51.568;6.998;2023-06-14T10:57:31;1.63;;;1.10;;
3141;SDS011;1581;51.568;6.998;2023-06-14T11:00:09;1.38;;;0.77;;
3141;SDS011;1581;51.568;6.998;2023-06-14T11:06:13;1.38;;;1.27;;
3141;SDS011;1581;51.568;6.998;2023-06-14T11:12:05;0.90;;;0.90;;
3141;SDS011;1581;51.568;6.998;2023-06-14T11:14:38;4.13;;;1.08;;
3141;SDS011;1581;51.568;6.998;2023-06-14T11:17:13;1.13;;;1.02;;
3141;SDS011;1581;51.568;6.998;2023-06-14T11:22:15;2.38;;;1.10;;
3141;SDS011;1581;51.568;6.998;2023-06-14T11:24:43;1.50;;;1.00;;
3141;SDS011;1581;51.568;6.998;2023-06-14T11:27:12;1.10;;;1.00;;
3141;SDS011;1581;51.568;6.998;2023-06-14T11:29:48;1.30;;;1.02;;
3141;SDS011;1581;51.568;6.998;2023-06-14T11:32:20;0.70;;;0.70;;
3141;SDS011;1581;51.568;6.998;2023-06-14T11:34:48;1.00;;;1.00;;
3141;SDS011;1581;51.568;6.998;2023-06-14T11:37:16;6.40;;;1.10;;
3141;SDS011;1581;51.568;6.998;2023-06-14T11:39:44;2.45;;;1.30;;
3141;SDS011;1581;51.568;6.998;2023-06-14T11:42:17;3.60;;;1.20;;
3141;SDS011;1581;51.568;6.998;2023-06-14T11:44:45;0.93;;;0.77;;
3141;SDS011;1581;51.568;6.998;2023-06-14T11:47:13;6.05;;;1.10;;
3141;SDS011;1581;51.568;6.998;2023-06-14T11:49:43;2.80;;;0.93;;
3141;SDS011;1581;51.568;6.998;2023-06-14T11:52:11;2.25;;;1.00;;
3141;SDS011;1581;51.568;6.998;2023-06-14T11:54:40;2.20;;;1.52;;
3141;SDS011;1581;51.568;6.998;2023-06-14T11:57:09;1.42;;;1.25;;
3141;SDS011;1581;51.568;6.998;2023-06-14T11:59:38;2.90;;;1.50;;
3141;SDS011;1581;51.568;6.998;2023-06-14T12:02:06;4.68;;;1.17;;
3141;SDS011;1581;51.568;6.998;2023-06-14T12:04:36;3.17;;;1.25;;
3141;SDS011;1581;51.568;6.998;2023-06-14T12:07:12;1.17;;;1.08;;
3141;SDS011;1581;51.568;6.998;2023-06-14T12:09:42;1.20;;;1.10;;
3141;SDS011;1581;51.568;6.998;2023-06-14T12:12:37;4.72;;;1.52;;
3141;SDS011;1581;51.568;6.998;2023-06-14T12:15:07;1.85;;;1.70;;
3141;SDS011;1581;51.568;6.998;2023-06-14T12:17:41;5.72;;;1.27;;
3141;SDS011;1581;51.568;6.998;2023-06-14T12:20:11;1.40;;;1.17;;
3141;SDS011;1581;51.568;6.998;2023-06-14T12:22:50;1.20;;;1.05;;
3141;SDS011;1581;51.568;6.998;2023-06-14T12:25:26;2.83;;;1.35;;
3141;SDS011;1581;51.568;6.998;2023-06-14T12:27:57;2.72;;;1.25;;
3141;SDS011;1581;51.568;6.998;2023-06-14T12:30:30;2.95;;;1.40;;
3141;SDS011;1581;51.568;6.998;2023-06-14T12:32:58;2.00;;;1.40;;
3141;SDS011;1581;51.568;6.998;2023-06-14T12:35:26;1.23;;;1.13;;
3141;SDS011;1581;51.568;6.998;2023-06-14T12:37:55;5.00;;;1.13;;
3141;SDS011;1581;51.568;6.998;2023-06-14T12:40:23;1.40;;;1.30;;
3141;SDS011;1581;51.568;6.998;2023-06-14T12:42:53;5.00;;;1.13;;
3141;SDS011;1581;51.568;6.998;2023-06-14T12:45:22;4.25;;;1.48;;
3141;SDS011;1581;51.568;6.998;2023-06-14T12:47:50;3.42;;;1.83;;
3141;SDS011;1581;51.568;6.998;2023-06-14T12:50:21;4.47;;;1.35;;
3141;SDS011;1581;51.568;6.998;2023-06-14T12:52:59;2.70;;;1.50;;
3141;SDS011;1581;51.568;6.998;2023-06-14T12:55:26;1.75;;;1.25;;
3141;SDS011;1581;51.568;6.998;2023-06-14T12:57:54;1.00;;;1.00;;
3141;SDS011;1581;51.568;6.998;2023-06-14T13:00:22;7.68;;;1.45;;
3141;SDS011;1581;51.568;6.998;2023-06-14T13:02:51;1.95;;;0.70;;
3141;SDS011;1581;51.568;6.998;2023-06-14T13:05:19;1.50;;;1.30;;
3141;SDS011;1581;51.568;6.998;2023-06-14T13:07:46;1.80;;;1.25;;
3141;SDS011;1581;51.568;6.998;2023-06-14T13:10:16;4.22;;;1.00;;
3141;SDS011;1581;51.568;6.998;2023-06-14T13:12:44;5.38;;;1.55;;
3141;SDS011;1581;51.568;6.998;2023-06-14T13:15:12;1.75;;;1.38;;
3141;SDS011;1581;51.568;6.998;2023-06-14T13:17:40;2.58;;;1.27;;
3141;SDS011;1581;51.568;6.998;2023-06-14T13:20:13;1.17;;;1.00;;
3141;SDS011;1581;51.568;6.998;2023-06-14T13:22:42;1.00;;;1.00;;
3141;SDS011;1581;51.568;6.998;2023-06-14T13:25:10;2.63;;;1.20;;
3141;SDS011;1581;51.568;6.998;2023-06-14T13:27:43;1.63;;;1.30;;
3141;SDS011;1581;51.568;6.998;2023-06-14T13:30:11;1.13;;;1.10;;
3141;SDS011;1581;51.568;6.998;2023-06-14T13:32:40;1.02;;;1.02;;
3141;SDS011;1581;51.568;6.998;2023-06-14T13:35:09;2.85;;;2.10;;
3141;SDS011;1581;51.568;6.998;2023-06-14T13:37:37;2.08;;;1.05;;
3141;SDS011;1581;51.568;6.998;2023-06-14T13:40:05;4.20;;;1.15;;
3141;SDS011;1581;51.568;6.998;2023-06-14T13:42:35;1.23;;;1.13;;
3141;SDS011;1581;51.568;6.998;2023-06-14T13:45:05;2.53;;;1.13;;
3141;SDS011;1581;51.568;6.998;2023-06-14T13:47:34;1.10;;;1.10;;
3141;SDS011;1581;51.568;6.998;2023-06-14T13:50:02;3.63;;;1.52;;
3141;SDS011;1581;51.568;6.998;2023-06-14T13:52:31;1.45;;;1.25;;
3141;SDS011;1581;51.568;6.998;2023-06-14T13:55:00;3.22;;;1.25;;
3141;SDS011;1581;51.568;6.998;2023-06-14T13:57:30;1.67;;;1.00;;
3141;SDS011;1581;51.568;6.998;2023-06-14T13:59:58;1.67;;;1.30;;
3141;SDS011;1581;51.568;6.998;2023-06-14T14:02:30;2.33;;;1.27;;
3141;SDS011;1581;51.568;6.998;2023-06-14T14:04:58;3.20;;;1.42;;
3141;SDS011;1581;51.568;6.998;2023-06-14T14:07:27;1.75;;;1.33;;
3141;SDS011;1581;51.568;6.998;2023-06-14T14:09:57;1.65;;;1.30;;
3141;SDS011;1581;51.568;6.998;2023-06-14T14:12:25;1.42;;;1.42;;
3141;SDS011;1581;51.568;6.998;2023-06-14T14:14:54;1.75;;;1.65;;
3141;SDS011;1581;51.568;6.998;2023-06-14T14:17:25;2.90;;;1.42;;
3141;SDS011;1581;51.568;6.998;2023-06-14T14:19:55;1.90;;;1.67;;
3141;SDS011;1581;51.568;6.998;2023-06-14T14:22:23;5.40;;;1.60;;
3141;SDS011;1581;51.568;6.998;2023-06-14T14:24:51;3.95;;;1.30;;
3141;SDS011;1581;51.568;6.998;2023-06-14T14:27:19;6.28;;;1.83;;
3141;SDS011;1581;51.568;6.998;2023-06-14T14:29:49;1.73;;;1.52;;
3141;SDS011;1581;51.568;6.998;2023-06-14T14:32:16;2.20;;;1.83;;
3141;SDS011;1581;51.568;6.998;2023-06-14T14:34:44;1.13;;;1.13;;
3141;SDS011;1581;51.568;6.998;2023-06-14T14:37:14;1.42;;;1.33;;
3141;SDS011;1581;51.568;6.998;2023-06-14T14:39:43;1.70;;;1.60;;
3141;SDS011;1581;51.568;6.998;2023-06-14T14:42:12;2.47;;;1.23;;
3141;SDS011;1581;51.568;6.998;2023-06-14T14:44:40;1.95;;;1.40;;
3141;SDS011;1581;51.568;6.998;2023-06-14T14:47:09;1.60;;;1.42;;
3141;SDS011;1581;51.568;6.998;2023-06-14T14:49:38;1.38;;;1.33;;
3141;SDS011;1581;51.568;6.998;2023-06-14T14:52:07;1.77;;;1.67;;
3141;SDS011;1581;51.568;6.998;2023-06-14T14:54:36;1.20;;;1.20;;
3141;SDS011;1581;51.568;6.998;2023-06-14T14:57:05;1.75;;;1.52;;
3141;SDS011;1581;51.568;6.998;2023-06-14T14:59:33;1.35;;;1.35;;
3141;SDS011;1581;51.568;6.998;2023-06-14T15:02:02;3.55;;;1.42;;
3141;SDS011;1581;51.568;6.998;2023-06-14T15:04:30;5.03;;;1.23;;
3141;SDS011;1581;51.568;6.998;2023-06-14T15:06:58;2.75;;;1.60;;
3141;SDS011;1581;51.568;6.998;2023-06-14T15:09:26;2.65;;;2.50;;
3141;SDS011;1581;51.568;6.998;2023-06-14T15:11:57;2.10;;;1.45;;
3141;SDS011;1581;51.568;6.998;2023-06-14T15:14:25;1.35;;;1.27;;
3141;SDS011;1581;51.568;6.998;2023-06-14T15:16:54;2.10;;;1.30;;
3141;SDS011;1581;51.568;6.998;2023-06-14T15:19:23;2.17;;;1.98;;
3141;SDS011;1581;51.568;6.998;2023-06-14T15:21:52;2.15;;;1.52;;
3141;SDS011;1581;51.568;6.998;2023-06-14T15:24:22;1.33;;;1.13;;
3141;SDS011;1581;51.568;6.998;2023-06-14T15:26:50;1.20;;;1.20;;
3141;SDS011;1581;51.568;6.998;2023-06-14T15:29:19;1.60;;;1.35;;
3141;SDS011;1581;51.568;6.998;2023-06-14T15:31:47;3.05;;;1.85;;
3141;SDS011;1581;51.568;6.998;2023-06-14T15:34:15;2.10;;;1.77;;
3141;SDS011;1581;51.568;6.998;2023-06-14T15:36:43;2.65;;;1.40;;
3141;SDS011;1581;51.568;6.998;2023-06-14T15:39:11;2.72;;;1.80;;
3141;SDS011;1581;51.568;6.998;2023-06-14T15:41:38;1.52;;;1.42;;
3141;SDS011;1581;51.568;6.998;2023-06-14T15:44:06;1.92;;;1.48;;